sensor_id;sensor_type;location;lat;lon;timestamp;temperature;humidity
25945;SHT31;13742;49.306;8.636;2022-11-20T00:00:19;4.56;92.07
25945;SHT31;13742;49.306;8.636;2022-11-20T00:01:21;4.59;92.04
25945;SHT31;13742;49.306;8.636;2022-11-20T00:02:19;4.59;92.02
25945;SHT31;13742;49.306;8.636;2022-11-20T00:03:20;4.60;92.10
25945;SHT31;13742;49.306;8.636;2022-11-20T00:04:19;4.62;92.00
25945;SHT31;13742;49.306;8.636;2022-11-20T00:05:20;4.59;91.94
25945;SHT31;13742;49.306;8.636;2022-11-20T00:06:20;4.57;91.90
25945;SHT31;13742;49.306;8.636;2022-11-20T00:07:19;4.52;91.66
25945;SHT31;13742;49.306;8.636;2022-11-20T00:08:19;4.50;91.80
25945;SHT31;13742;49.306;8.636;2022-11-20T00:09:20;4.52;91.69
25945;SHT31;13742;49.306;8.636;2022-11-20T00:10:19;4.50;91.84
25945;SHT31;13742;49.306;8.636;2022-11-20T00:11:22;4.52;91.89
25945;SHT31;13742;49.306;8.636;2022-11-20T00:12:19;4.52;91.86
25945;SHT31;13742;49.306;8.636;2022-11-20T00:13:19;4.49;91.91
25945;SHT31;13742;49.306;8.636;2022-11-20T00:14:19;4.48;91.82
25945;SHT31;13742;49.306;8.636;2022-11-20T00:15:19;4.49;91.64
25945;SHT31;13742;49.306;8.636;2022-11-20T00:16:22;4.52;91.86
25945;SHT31;13742;49.306;8.636;2022-11-20T00:17:19;4.50;91.97
25945;SHT31;13742;49.306;8.636;2022-11-20T00:18:19;4.49;92.09
25945;SHT31;13742;49.306;8.636;2022-11-20T00:19:19;4.46;92.11
25945;SHT31;13742;49.306;8.636;2022-11-20T00:20:19;4.49;92.06
25945;SHT31;13742;49.306;8.636;2022-11-20T00:21:24;4.52;92.03
25945;SHT31;13742;49.306;8.636;2022-11-20T00:22:19;4.49;91.90
25945;SHT31;13742;49.306;8.636;2022-11-20T00:23:19;4.50;92.08
25945;SHT31;13742;49.306;8.636;2022-11-20T00:24:19;4.49;92.09
25945;SHT31;13742;49.306;8.636;2022-11-20T00:25:19;4.53;92.39
25945;SHT31;13742;49.306;8.636;2022-11-20T00:26:21;4.50;92.24
25945;SHT31;13742;49.306;8.636;2022-11-20T00:27:19;4.53;92.13
25945;SHT31;13742;49.306;8.636;2022-11-20T00:28:19;4.55;92.13
25945;SHT31;13742;49.306;8.636;2022-11-20T00:29:19;4.53;92.13
25945;SHT31;13742;49.306;8.636;2022-11-20T00:30:19;4.53;92.27
25945;SHT31;13742;49.306;8.636;2022-11-20T00:31:19;4.57;92.39
25945;SHT31;13742;49.306;8.636;2022-11-20T00:32:19;4.55;92.38
25945;SHT31;13742;49.306;8.636;2022-11-20T00:33:19;4.57;92.56
25945;SHT31;13742;49.306;8.636;2022-11-20T00:34:19;4.60;92.62
25945;SHT31;13742;49.306;8.636;2022-11-20T00:35:19;4.63;92.41
25945;SHT31;13742;49.306;8.636;2022-11-20T00:36:25;4.62;92.33
25945;SHT31;13742;49.306;8.636;2022-11-20T00:37:19;4.62;92.34
25945;SHT31;13742;49.306;8.636;2022-11-20T00:38:19;4.62;92.34
25945;SHT31;13742;49.306;8.636;2022-11-20T00:39:19;4.64;92.27
25945;SHT31;13742;49.306;8.636;2022-11-20T00:40:19;4.66;92.29
25945;SHT31;13742;49.306;8.636;2022-11-20T00:41:20;4.64;92.15
25945;SHT31;13742;49.306;8.636;2022-11-20T00:42:19;4.63;91.89
25945;SHT31;13742;49.306;8.636;2022-11-20T00:43:19;4.63;92.05
25945;SHT31;13742;49.306;8.636;2022-11-20T00:44:19;4.62;91.93
25945;SHT31;13742;49.306;8.636;2022-11-20T00:45:19;4.63;92.29
25945;SHT31;13742;49.306;8.636;2022-11-20T00:46:22;4.67;92.07
25945;SHT31;13742;49.306;8.636;2022-11-20T00:47:19;4.64;92.00
25945;SHT31;13742;49.306;8.636;2022-11-20T00:48:19;4.64;92.16
25945;SHT31;13742;49.306;8.636;2022-11-20T00:49:19;4.67;92.14
25945;SHT31;13742;49.306;8.636;2022-11-20T00:50:19;4.69;92.14
25945;SHT31;13742;49.306;8.636;2022-11-20T00:51:22;4.69;91.99
25945;SHT31;13742;49.306;8.636;2022-11-20T00:52:19;4.67;91.87
25945;SHT31;13742;49.306;8.636;2022-11-20T00:53:20;4.64;91.84
25945;SHT31;13742;49.306;8.636;2022-11-20T00:54:19;4.67;92.31
25945;SHT31;13742;49.306;8.636;2022-11-20T00:55:19;4.69;92.08
25945;SHT31;13742;49.306;8.636;2022-11-20T00:56:19;4.69;91.90
25945;SHT31;13742;49.306;8.636;2022-11-20T00:57:19;4.67;91.88
25945;SHT31;13742;49.306;8.636;2022-11-20T00:58:19;4.66;91.87
25945;SHT31;13742;49.306;8.636;2022-11-20T00:59:19;4.67;91.96
25945;SHT31;13742;49.306;8.636;2022-11-20T01:00:19;4.66;91.65
25945;SHT31;13742;49.306;8.636;2022-11-20T01:01:21;4.66;91.34
25945;SHT31;13742;49.306;8.636;2022-11-20T01:02:19;4.62;91.60
25945;SHT31;13742;49.306;8.636;2022-11-20T01:03:19;4.62;91.51
25945;SHT31;13742;49.306;8.636;2022-11-20T01:04:19;4.63;91.48
25945;SHT31;13742;49.306;8.636;2022-11-20T01:05:19;4.60;91.55
25945;SHT31;13742;49.306;8.636;2022-11-20T01:06:26;4.57;91.57
25945;SHT31;13742;49.306;8.636;2022-11-20T01:07:19;4.59;91.55
25945;SHT31;13742;49.306;8.636;2022-11-20T01:08:19;4.60;91.57
25945;SHT31;13742;49.306;8.636;2022-11-20T01:09:19;4.59;91.64
25945;SHT31;13742;49.306;8.636;2022-11-20T01:10:19;4.57;91.70
25945;SHT31;13742;49.306;8.636;2022-11-20T01:11:24;4.59;92.01
25945;SHT31;13742;49.306;8.636;2022-11-20T01:12:19;4.64;92.07
25945;SHT31;13742;49.306;8.636;2022-11-20T01:13:24;4.62;92.00
25945;SHT31;13742;49.306;8.636;2022-11-20T01:14:19;4.63;91.90
25945;SHT31;13742;49.306;8.636;2022-11-20T01:15:19;4.63;91.96
25945;SHT31;13742;49.306;8.636;2022-11-20T01:16:24;4.64;92.02
25945;SHT31;13742;49.306;8.636;2022-11-20T01:17:19;4.66;92.14
25945;SHT31;13742;49.306;8.636;2022-11-20T01:18:19;4.66;92.05
25945;SHT31;13742;49.306;8.636;2022-11-20T01:19:21;4.66;91.84
25945;SHT31;13742;49.306;8.636;2022-11-20T01:20:19;4.62;91.75
25945;SHT31;13742;49.306;8.636;2022-11-20T01:21:22;4.60;91.66
25945;SHT31;13742;49.306;8.636;2022-11-20T01:22:19;4.62;91.71
25945;SHT31;13742;49.306;8.636;2022-11-20T01:23:19;4.60;91.89
25945;SHT31;13742;49.306;8.636;2022-11-20T01:24:21;4.62;92.25
25945;SHT31;13742;49.306;8.636;2022-11-20T01:25:19;4.59;91.64
25945;SHT31;13742;49.306;8.636;2022-11-20T01:26:25;4.60;92.06
25945;SHT31;13742;49.306;8.636;2022-11-20T01:27:19;4.64;92.00
25945;SHT31;13742;49.306;8.636;2022-11-20T01:28:19;4.64;92.15
25945;SHT31;13742;49.306;8.636;2022-11-20T01:29:23;4.67;92.24
25945;SHT31;13742;49.306;8.636;2022-11-20T01:30:19;4.69;92.30
25945;SHT31;13742;49.306;8.636;2022-11-20T01:31:25;4.70;92.58
25945;SHT31;13742;49.306;8.636;2022-11-20T01:32:19;4.74;92.42
25945;SHT31;13742;49.306;8.636;2022-11-20T01:33:19;4.74;92.57
25945;SHT31;13742;49.306;8.636;2022-11-20T01:34:21;4.76;92.41
25945;SHT31;13742;49.306;8.636;2022-11-20T01:35:19;4.76;92.21
25945;SHT31;13742;49.306;8.636;2022-11-20T01:36:21;4.77;92.42
25945;SHT31;13742;49.306;8.636;2022-11-20T01:37:19;4.79;92.44
25945;SHT31;13742;49.306;8.636;2022-11-20T01:38:22;4.79;92.38
25945;SHT31;13742;49.306;8.636;2022-11-20T01:39:24;4.80;92.30
25945;SHT31;13742;49.306;8.636;2022-11-20T01:40:19;4.80;92.04
25945;SHT31;13742;49.306;8.636;2022-11-20T01:41:26;4.79;92.05
25945;SHT31;13742;49.306;8.636;2022-11-20T01:42:24;4.80;92.07
25945;SHT31;13742;49.306;8.636;2022-11-20T01:43:23;4.79;92.09
25945;SHT31;13742;49.306;8.636;2022-11-20T01:44:22;4.80;92.19
25945;SHT31;13742;49.306;8.636;2022-11-20T01:46:19;4.81;92.18
25945;SHT31;13742;49.306;8.636;2022-11-20T01:47:30;4.81;92.01
25945;SHT31;13742;49.306;8.636;2022-11-20T01:48:21;4.80;91.89
25945;SHT31;13742;49.306;8.636;2022-11-20T01:49:24;4.80;91.82
25945;SHT31;13742;49.306;8.636;2022-11-20T01:50:24;4.77;91.75
25945;SHT31;13742;49.306;8.636;2022-11-20T01:51:30;4.80;91.69
25945;SHT31;13742;49.306;8.636;2022-11-20T01:52:26;4.73;91.51
25945;SHT31;13742;49.306;8.636;2022-11-20T01:53:23;4.73;91.61
25945;SHT31;13742;49.306;8.636;2022-11-20T01:54:28;4.70;91.62
25945;SHT31;13742;49.306;8.636;2022-11-20T01:55:22;4.71;91.59
25945;SHT31;13742;49.306;8.636;2022-11-20T01:56:19;4.69;91.55
25945;SHT31;13742;49.306;8.636;2022-11-20T01:57:20;4.66;91.64
25945;SHT31;13742;49.306;8.636;2022-11-20T01:58:22;4.66;91.60
25945;SHT31;13742;49.306;8.636;2022-11-20T01:59:20;4.66;91.71
25945;SHT31;13742;49.306;8.636;2022-11-20T02:00:20;4.63;91.71
25945;SHT31;13742;49.306;8.636;2022-11-20T02:01:20;4.62;91.77
25945;SHT31;13742;49.306;8.636;2022-11-20T02:02:20;4.60;91.72
25945;SHT31;13742;49.306;8.636;2022-11-20T02:03:19;4.62;91.85
25945;SHT31;13742;49.306;8.636;2022-11-20T02:04:20;4.60;91.86
25945;SHT31;13742;49.306;8.636;2022-11-20T02:05:28;4.62;91.99
25945;SHT31;13742;49.306;8.636;2022-11-20T02:06:24;4.59;92.01
25945;SHT31;13742;49.306;8.636;2022-11-20T02:07:19;4.59;92.30
25945;SHT31;13742;49.306;8.636;2022-11-20T02:08:21;4.62;92.42
25945;SHT31;13742;49.306;8.636;2022-11-20T02:09:19;4.63;92.35
25945;SHT31;13742;49.306;8.636;2022-11-20T02:10:20;4.64;92.29
25945;SHT31;13742;49.306;8.636;2022-11-20T02:11:20;4.63;92.26
25945;SHT31;13742;49.306;8.636;2022-11-20T02:12:24;4.64;92.56
25945;SHT31;13742;49.306;8.636;2022-11-20T02:13:24;4.66;92.54
25945;SHT31;13742;49.306;8.636;2022-11-20T02:14:21;4.67;92.44
25945;SHT31;13742;49.306;8.636;2022-11-20T02:15:19;4.70;92.55
25945;SHT31;13742;49.306;8.636;2022-11-20T02:16:25;4.70;92.47
25945;SHT31;13742;49.306;8.636;2022-11-20T02:17:19;4.69;92.42
25945;SHT31;13742;49.306;8.636;2022-11-20T02:18:20;4.67;92.47
25945;SHT31;13742;49.306;8.636;2022-11-20T02:19:26;4.70;92.74
25945;SHT31;13742;49.306;8.636;2022-11-20T02:20:19;4.71;92.67
25945;SHT31;13742;49.306;8.636;2022-11-20T02:21:27;4.74;92.56
25945;SHT31;13742;49.306;8.636;2022-11-20T02:22:29;4.73;92.55
25945;SHT31;13742;49.306;8.636;2022-11-20T02:23:28;4.76;92.49
25945;SHT31;13742;49.306;8.636;2022-11-20T02:24:21;4.76;92.69
25945;SHT31;13742;49.306;8.636;2022-11-20T02:25:19;4.76;92.50
25945;SHT31;13742;49.306;8.636;2022-11-20T02:26:21;4.76;92.54
25945;SHT31;13742;49.306;8.636;2022-11-20T02:27:20;4.74;92.44
25945;SHT31;13742;49.306;8.636;2022-11-20T02:28:19;4.74;92.50
25945;SHT31;13742;49.306;8.636;2022-11-20T02:29:26;4.79;92.58
25945;SHT31;13742;49.306;8.636;2022-11-20T02:30:19;4.76;92.46
25945;SHT31;13742;49.306;8.636;2022-11-20T02:31:19;4.74;92.44
25945;SHT31;13742;49.306;8.636;2022-11-20T02:32:25;4.76;92.45
25945;SHT31;13742;49.306;8.636;2022-11-20T02:33:19;4.76;92.53
25945;SHT31;13742;49.306;8.636;2022-11-20T02:34:19;4.74;92.48
25945;SHT31;13742;49.306;8.636;2022-11-20T02:36:19;4.77;92.62
25945;SHT31;13742;49.306;8.636;2022-11-20T02:37:20;4.79;92.84
25945;SHT31;13742;49.306;8.636;2022-11-20T02:38:19;4.80;92.63
25945;SHT31;13742;49.306;8.636;2022-11-20T02:39:20;4.80;92.72
25945;SHT31;13742;49.306;8.636;2022-11-20T02:40:19;4.79;92.59
25945;SHT31;13742;49.306;8.636;2022-11-20T02:41:19;4.80;92.63
25945;SHT31;13742;49.306;8.636;2022-11-20T02:42:19;4.80;92.61
25945;SHT31;13742;49.306;8.636;2022-11-20T02:43:19;4.80;92.69
25945;SHT31;13742;49.306;8.636;2022-11-20T02:44:20;4.81;92.63
25945;SHT31;13742;49.306;8.636;2022-11-20T02:45:19;4.80;92.64
25945;SHT31;13742;49.306;8.636;2022-11-20T02:46:19;4.83;92.74
25945;SHT31;13742;49.306;8.636;2022-11-20T02:47:19;4.80;92.74
25945;SHT31;13742;49.306;8.636;2022-11-20T02:48:19;4.81;92.84
25945;SHT31;13742;49.306;8.636;2022-11-20T02:49:19;4.81;92.61
25945;SHT31;13742;49.306;8.636;2022-11-20T02:50:19;4.83;92.69
25945;SHT31;13742;49.306;8.636;2022-11-20T02:51:19;4.80;92.77
25945;SHT31;13742;49.306;8.636;2022-11-20T02:52:19;4.83;92.85
25945;SHT31;13742;49.306;8.636;2022-11-20T02:53:19;4.86;93.29
25945;SHT31;13742;49.306;8.636;2022-11-20T02:54:19;4.86;93.36
25945;SHT31;13742;49.306;8.636;2022-11-20T02:55:19;4.86;93.06
25945;SHT31;13742;49.306;8.636;2022-11-20T02:56:19;4.87;92.83
25945;SHT31;13742;49.306;8.636;2022-11-20T02:57:19;4.87;92.79
25945;SHT31;13742;49.306;8.636;2022-11-20T02:58:19;4.90;93.21
25945;SHT31;13742;49.306;8.636;2022-11-20T02:59:19;4.91;93.15
25945;SHT31;13742;49.306;8.636;2022-11-20T03:00:19;4.91;93.07
25945;SHT31;13742;49.306;8.636;2022-11-20T03:01:19;4.91;93.19
25945;SHT31;13742;49.306;8.636;2022-11-20T03:02:19;4.90;93.10
25945;SHT31;13742;49.306;8.636;2022-11-20T03:03:19;4.91;92.94
25945;SHT31;13742;49.306;8.636;2022-11-20T03:04:19;4.90;92.96
25945;SHT31;13742;49.306;8.636;2022-11-20T03:05:19;4.92;93.20
25945;SHT31;13742;49.306;8.636;2022-11-20T03:06:19;4.92;93.02
25945;SHT31;13742;49.306;8.636;2022-11-20T03:07:19;4.92;92.90
25945;SHT31;13742;49.306;8.636;2022-11-20T03:08:19;4.92;92.82
25945;SHT31;13742;49.306;8.636;2022-11-20T03:09:19;4.91;92.91
25945;SHT31;13742;49.306;8.636;2022-11-20T03:10:19;4.90;92.81
25945;SHT31;13742;49.306;8.636;2022-11-20T03:11:19;4.92;92.85
25945;SHT31;13742;49.306;8.636;2022-11-20T03:12:19;4.91;92.78
25945;SHT31;13742;49.306;8.636;2022-11-20T03:13:19;4.90;92.81
25945;SHT31;13742;49.306;8.636;2022-11-20T03:14:19;4.88;92.82
25945;SHT31;13742;49.306;8.636;2022-11-20T03:15:19;4.92;92.83
25945;SHT31;13742;49.306;8.636;2022-11-20T03:16:21;4.90;92.98
25945;SHT31;13742;49.306;8.636;2022-11-20T03:17:19;4.91;93.03
25945;SHT31;13742;49.306;8.636;2022-11-20T03:18:19;4.90;93.02
25945;SHT31;13742;49.306;8.636;2022-11-20T03:19:19;4.91;93.09
25945;SHT31;13742;49.306;8.636;2022-11-20T03:20:20;4.94;93.24
25945;SHT31;13742;49.306;8.636;2022-11-20T03:21:19;4.94;93.02
25945;SHT31;13742;49.306;8.636;2022-11-20T03:22:19;4.91;93.07
25945;SHT31;13742;49.306;8.636;2022-11-20T03:23:19;4.94;93.10
25945;SHT31;13742;49.306;8.636;2022-11-20T03:24:19;4.92;92.98
25945;SHT31;13742;49.306;8.636;2022-11-20T03:25:19;4.94;92.90
25945;SHT31;13742;49.306;8.636;2022-11-20T03:26:22;4.92;92.92
25945;SHT31;13742;49.306;8.636;2022-11-20T03:27:19;4.92;93.04
25945;SHT31;13742;49.306;8.636;2022-11-20T03:28:19;4.98;93.24
25945;SHT31;13742;49.306;8.636;2022-11-20T03:29:19;4.97;93.26
25945;SHT31;13742;49.306;8.636;2022-11-20T03:30:19;4.97;93.13
25945;SHT31;13742;49.306;8.636;2022-11-20T03:31:22;4.97;93.34
25945;SHT31;13742;49.306;8.636;2022-11-20T03:32:19;4.98;93.24
25945;SHT31;13742;49.306;8.636;2022-11-20T03:33:19;4.98;93.16
25945;SHT31;13742;49.306;8.636;2022-11-20T03:34:19;5.01;93.43
25945;SHT31;13742;49.306;8.636;2022-11-20T03:35:19;5.00;93.41
25945;SHT31;13742;49.306;8.636;2022-11-20T03:36:20;5.05;93.32
25945;SHT31;13742;49.306;8.636;2022-11-20T03:37:19;5.05;93.47
25945;SHT31;13742;49.306;8.636;2022-11-20T03:38:19;5.02;93.25
25945;SHT31;13742;49.306;8.636;2022-11-20T03:39:19;5.04;93.08
25945;SHT31;13742;49.306;8.636;2022-11-20T03:40:19;5.07;93.37
25945;SHT31;13742;49.306;8.636;2022-11-20T03:41:21;5.10;93.67
25945;SHT31;13742;49.306;8.636;2022-11-20T03:42:24;5.08;93.63
25945;SHT31;13742;49.306;8.636;2022-11-20T03:43:19;5.02;93.68
25945;SHT31;13742;49.306;8.636;2022-11-20T03:44:21;5.05;93.87
25945;SHT31;13742;49.306;8.636;2022-11-20T03:45:19;5.05;94.05
25945;SHT31;13742;49.306;8.636;2022-11-20T03:46:20;5.04;93.97
25945;SHT31;13742;49.306;8.636;2022-11-20T03:47:19;5.00;93.89
25945;SHT31;13742;49.306;8.636;2022-11-20T03:48:19;5.01;94.02
25945;SHT31;13742;49.306;8.636;2022-11-20T03:49:19;5.01;94.17
25945;SHT31;13742;49.306;8.636;2022-11-20T03:50:19;5.04;94.29
25945;SHT31;13742;49.306;8.636;2022-11-20T03:51:22;4.95;94.05
25945;SHT31;13742;49.306;8.636;2022-11-20T03:52:19;4.92;94.29
25945;SHT31;13742;49.306;8.636;2022-11-20T03:53:20;4.92;94.60
25945;SHT31;13742;49.306;8.636;2022-11-20T03:54:19;4.87;94.72
25945;SHT31;13742;49.306;8.636;2022-11-20T03:55:19;4.88;95.12
25945;SHT31;13742;49.306;8.636;2022-11-20T03:56:22;4.83;94.91
25945;SHT31;13742;49.306;8.636;2022-11-20T03:57:19;4.84;95.32
25945;SHT31;13742;49.306;8.636;2022-11-20T03:58:19;4.84;95.11
25945;SHT31;13742;49.306;8.636;2022-11-20T03:59:19;4.86;95.04
25945;SHT31;13742;49.306;8.636;2022-11-20T04:00:19;4.88;95.07
25945;SHT31;13742;49.306;8.636;2022-11-20T04:01:24;4.91;94.95
25945;SHT31;13742;49.306;8.636;2022-11-20T04:02:19;4.92;94.77
25945;SHT31;13742;49.306;8.636;2022-11-20T04:03:19;4.92;94.60
25945;SHT31;13742;49.306;8.636;2022-11-20T04:04:19;4.94;94.88
25945;SHT31;13742;49.306;8.636;2022-11-20T04:05:19;4.95;94.63
25945;SHT31;13742;49.306;8.636;2022-11-20T04:06:22;4.95;94.65
25945;SHT31;13742;49.306;8.636;2022-11-20T04:07:19;4.97;94.62
25945;SHT31;13742;49.306;8.636;2022-11-20T04:08:19;4.94;94.71
25945;SHT31;13742;49.306;8.636;2022-11-20T04:09:19;4.97;94.65
25945;SHT31;13742;49.306;8.636;2022-11-20T04:10:19;5.01;95.10
25945;SHT31;13742;49.306;8.636;2022-11-20T04:11:25;5.01;95.08
25945;SHT31;13742;49.306;8.636;2022-11-20T04:12:19;4.95;94.60
25945;SHT31;13742;49.306;8.636;2022-11-20T04:13:19;4.88;94.26
25945;SHT31;13742;49.306;8.636;2022-11-20T04:14:19;4.92;94.57
25945;SHT31;13742;49.306;8.636;2022-11-20T04:15:19;4.92;94.52
25945;SHT31;13742;49.306;8.636;2022-11-20T04:16:20;4.95;94.48
25945;SHT31;13742;49.306;8.636;2022-11-20T04:17:19;4.97;94.45
25945;SHT31;13742;49.306;8.636;2022-11-20T04:18:19;4.97;94.55
25945;SHT31;13742;49.306;8.636;2022-11-20T04:19:19;5.00;94.78
25945;SHT31;13742;49.306;8.636;2022-11-20T04:20:19;5.04;95.19
25945;SHT31;13742;49.306;8.636;2022-11-20T04:21:19;5.05;95.21
25945;SHT31;13742;49.306;8.636;2022-11-20T04:22:19;5.04;95.12
25945;SHT31;13742;49.306;8.636;2022-11-20T04:23:19;5.05;94.97
25945;SHT31;13742;49.306;8.636;2022-11-20T04:24:19;5.04;94.89
25945;SHT31;13742;49.306;8.636;2022-11-20T04:25:19;5.05;94.89
25945;SHT31;13742;49.306;8.636;2022-11-20T04:26:21;5.07;94.95
25945;SHT31;13742;49.306;8.636;2022-11-20T04:27:19;5.08;95.01
25945;SHT31;13742;49.306;8.636;2022-11-20T04:28:19;5.07;95.02
25945;SHT31;13742;49.306;8.636;2022-11-20T04:29:19;5.07;95.10
25945;SHT31;13742;49.306;8.636;2022-11-20T04:30:19;5.10;95.11
25945;SHT31;13742;49.306;8.636;2022-11-20T04:31:23;5.10;95.23
25945;SHT31;13742;49.306;8.636;2022-11-20T04:32:19;5.07;95.14
25945;SHT31;13742;49.306;8.636;2022-11-20T04:33:19;5.05;95.16
25945;SHT31;13742;49.306;8.636;2022-11-20T04:34:19;5.07;95.00
25945;SHT31;13742;49.306;8.636;2022-11-20T04:35:19;5.07;95.03
25945;SHT31;13742;49.306;8.636;2022-11-20T04:36:24;5.10;94.90
25945;SHT31;13742;49.306;8.636;2022-11-20T04:37:19;5.10;94.75
25945;SHT31;13742;49.306;8.636;2022-11-20T04:38:19;5.08;94.73
25945;SHT31;13742;49.306;8.636;2022-11-20T04:39:19;5.11;94.83
25945;SHT31;13742;49.306;8.636;2022-11-20T04:40:19;5.11;95.07
25945;SHT31;13742;49.306;8.636;2022-11-20T04:41:21;5.10;94.96
25945;SHT31;13742;49.306;8.636;2022-11-20T04:42:24;5.12;94.95
25945;SHT31;13742;49.306;8.636;2022-11-20T04:43:19;5.11;94.84
25945;SHT31;13742;49.306;8.636;2022-11-20T04:44:19;5.14;94.81
25945;SHT31;13742;49.306;8.636;2022-11-20T04:45:19;5.15;94.71
25945;SHT31;13742;49.306;8.636;2022-11-20T04:46:20;5.15;95.05
25945;SHT31;13742;49.306;8.636;2022-11-20T04:47:19;5.18;95.14
25945;SHT31;13742;49.306;8.636;2022-11-20T04:48:19;5.18;94.95
25945;SHT31;13742;49.306;8.636;2022-11-20T04:49:19;5.16;94.78
25945;SHT31;13742;49.306;8.636;2022-11-20T04:50:19;5.18;95.07
25945;SHT31;13742;49.306;8.636;2022-11-20T04:51:19;5.12;94.90
25945;SHT31;13742;49.306;8.636;2022-11-20T04:52:19;5.04;95.07
25945;SHT31;13742;49.306;8.636;2022-11-20T04:53:20;5.08;95.15
25945;SHT31;13742;49.306;8.636;2022-11-20T04:54:20;5.10;95.18
25945;SHT31;13742;49.306;8.636;2022-11-20T04:55:19;5.11;95.59
25945;SHT31;13742;49.306;8.636;2022-11-20T04:56:19;5.11;95.39
25945;SHT31;13742;49.306;8.636;2022-11-20T04:57:19;5.10;95.26
25945;SHT31;13742;49.306;8.636;2022-11-20T04:58:19;5.11;95.07
25945;SHT31;13742;49.306;8.636;2022-11-20T04:59:19;5.11;95.13
25945;SHT31;13742;49.306;8.636;2022-11-20T05:00:19;5.11;95.72
25945;SHT31;13742;49.306;8.636;2022-11-20T05:01:22;5.15;95.44
25945;SHT31;13742;49.306;8.636;2022-11-20T05:02:20;5.18;95.83
25945;SHT31;13742;49.306;8.636;2022-11-20T05:03:19;5.08;95.43
25945;SHT31;13742;49.306;8.636;2022-11-20T05:04:19;5.14;95.35
25945;SHT31;13742;49.306;8.636;2022-11-20T05:05:19;5.12;95.35
25945;SHT31;13742;49.306;8.636;2022-11-20T05:06:20;5.15;95.66
25945;SHT31;13742;49.306;8.636;2022-11-20T05:07:19;5.19;96.09
25945;SHT31;13742;49.306;8.636;2022-11-20T05:08:19;5.23;96.08
25945;SHT31;13742;49.306;8.636;2022-11-20T05:09:19;5.21;95.58
25945;SHT31;13742;49.306;8.636;2022-11-20T05:10:19;5.18;95.57
25945;SHT31;13742;49.306;8.636;2022-11-20T05:11:20;5.15;95.83
25945;SHT31;13742;49.306;8.636;2022-11-20T05:12:19;5.11;95.67
25945;SHT31;13742;49.306;8.636;2022-11-20T05:13:19;5.07;95.72
25945;SHT31;13742;49.306;8.636;2022-11-20T05:14:19;5.12;95.72
25945;SHT31;13742;49.306;8.636;2022-11-20T05:15:19;5.14;95.69
25945;SHT31;13742;49.306;8.636;2022-11-20T05:16:21;5.15;95.70
25945;SHT31;13742;49.306;8.636;2022-11-20T05:17:19;5.18;95.74
25945;SHT31;13742;49.306;8.636;2022-11-20T05:18:19;5.21;96.05
25945;SHT31;13742;49.306;8.636;2022-11-20T05:19:19;5.22;96.01
25945;SHT31;13742;49.306;8.636;2022-11-20T05:20:20;5.22;95.88
25945;SHT31;13742;49.306;8.636;2022-11-20T05:21:20;5.22;95.82
25945;SHT31;13742;49.306;8.636;2022-11-20T05:22:19;5.22;95.81
25945;SHT31;13742;49.306;8.636;2022-11-20T05:23:19;5.25;95.76
25945;SHT31;13742;49.306;8.636;2022-11-20T05:24:19;5.26;95.84
25945;SHT31;13742;49.306;8.636;2022-11-20T05:25:19;5.26;95.89
25945;SHT31;13742;49.306;8.636;2022-11-20T05:26:21;5.31;95.75
25945;SHT31;13742;49.306;8.636;2022-11-20T05:27:19;5.29;95.50
25945;SHT31;13742;49.306;8.636;2022-11-20T05:28:20;5.33;95.59
25945;SHT31;13742;49.306;8.636;2022-11-20T05:29:19;5.32;95.68
25945;SHT31;13742;49.306;8.636;2022-11-20T05:30:19;5.35;95.72
25945;SHT31;13742;49.306;8.636;2022-11-20T05:31:21;5.35;95.64
25945;SHT31;13742;49.306;8.636;2022-11-20T05:32:19;5.33;95.65
25945;SHT31;13742;49.306;8.636;2022-11-20T05:33:19;5.38;95.66
25945;SHT31;13742;49.306;8.636;2022-11-20T05:34:19;5.38;95.60
25945;SHT31;13742;49.306;8.636;2022-11-20T05:35:20;5.38;95.50
25945;SHT31;13742;49.306;8.636;2022-11-20T05:36:19;5.38;95.42
25945;SHT31;13742;49.306;8.636;2022-11-20T05:37:19;5.39;95.35
25945;SHT31;13742;49.306;8.636;2022-11-20T05:38:19;5.41;95.33
25945;SHT31;13742;49.306;8.636;2022-11-20T05:39:19;5.42;95.52
25945;SHT31;13742;49.306;8.636;2022-11-20T05:40:19;5.42;95.44
25945;SHT31;13742;49.306;8.636;2022-11-20T05:41:20;5.42;95.41
25945;SHT31;13742;49.306;8.636;2022-11-20T05:42:24;5.41;95.36
25945;SHT31;13742;49.306;8.636;2022-11-20T05:43:19;5.42;95.31
25945;SHT31;13742;49.306;8.636;2022-11-20T05:44:19;5.42;95.27
25945;SHT31;13742;49.306;8.636;2022-11-20T05:45:19;5.42;95.25
25945;SHT31;13742;49.306;8.636;2022-11-20T05:46:20;5.41;95.31
25945;SHT31;13742;49.306;8.636;2022-11-20T05:47:19;5.43;95.25
25945;SHT31;13742;49.306;8.636;2022-11-20T05:48:19;5.46;95.28
25945;SHT31;13742;49.306;8.636;2022-11-20T05:49:19;5.49;95.26
25945;SHT31;13742;49.306;8.636;2022-11-20T05:50:19;5.46;95.16
25945;SHT31;13742;49.306;8.636;2022-11-20T05:51:19;5.47;95.16
25945;SHT31;13742;49.306;8.636;2022-11-20T05:52:19;5.46;95.10
25945;SHT31;13742;49.306;8.636;2022-11-20T05:53:19;5.49;95.09
25945;SHT31;13742;49.306;8.636;2022-11-20T05:54:19;5.47;95.05
25945;SHT31;13742;49.306;8.636;2022-11-20T05:55:19;5.49;95.09
25945;SHT31;13742;49.306;8.636;2022-11-20T05:56:20;5.53;95.09
25945;SHT31;13742;49.306;8.636;2022-11-20T05:57:19;5.47;95.09
25945;SHT31;13742;49.306;8.636;2022-11-20T05:58:19;5.49;95.08
25945;SHT31;13742;49.306;8.636;2022-11-20T05:59:19;5.52;95.08
25945;SHT31;13742;49.306;8.636;2022-11-20T06:00:19;5.53;95.11
25945;SHT31;13742;49.306;8.636;2022-11-20T06:01:22;5.53;95.09
25945;SHT31;13742;49.306;8.636;2022-11-20T06:02:19;5.52;95.05
25945;SHT31;13742;49.306;8.636;2022-11-20T06:03:19;5.52;94.99
25945;SHT31;13742;49.306;8.636;2022-11-20T06:04:19;5.53;95.02
25945;SHT31;13742;49.306;8.636;2022-11-20T06:05:19;5.53;95.01
25945;SHT31;13742;49.306;8.636;2022-11-20T06:06:19;5.52;95.02
25945;SHT31;13742;49.306;8.636;2022-11-20T06:07:19;5.54;95.08
25945;SHT31;13742;49.306;8.636;2022-11-20T06:08:19;5.53;95.10
25945;SHT31;13742;49.306;8.636;2022-11-20T06:09:19;5.50;95.10
25945;SHT31;13742;49.306;8.636;2022-11-20T06:10:19;5.50;95.15
25945;SHT31;13742;49.306;8.636;2022-11-20T06:11:19;5.50;95.15
25945;SHT31;13742;49.306;8.636;2022-11-20T06:12:19;5.49;95.24
25945;SHT31;13742;49.306;8.636;2022-11-20T06:13:19;5.47;95.20
25945;SHT31;13742;49.306;8.636;2022-11-20T06:14:19;5.49;95.23
25945;SHT31;13742;49.306;8.636;2022-11-20T06:15:19;5.46;95.37
25945;SHT31;13742;49.306;8.636;2022-11-20T06:16:19;5.47;95.24
25945;SHT31;13742;49.306;8.636;2022-11-20T06:17:19;5.47;95.27
25945;SHT31;13742;49.306;8.636;2022-11-20T06:18:19;5.47;95.68
25945;SHT31;13742;49.306;8.636;2022-11-20T06:19:19;5.47;95.81
25945;SHT31;13742;49.306;8.636;2022-11-20T06:20:20;5.50;95.81
25945;SHT31;13742;49.306;8.636;2022-11-20T06:21:21;5.46;95.91
25945;SHT31;13742;49.306;8.636;2022-11-20T06:22:19;5.47;95.89
25945;SHT31;13742;49.306;8.636;2022-11-20T06:23:19;5.50;96.13
25945;SHT31;13742;49.306;8.636;2022-11-20T06:24:19;5.52;95.89
25945;SHT31;13742;49.306;8.636;2022-11-20T06:25:19;5.52;96.05
25945;SHT31;13742;49.306;8.636;2022-11-20T06:26:24;5.54;95.88